Aviation Digital Data Service (ADDS)

Output produced by METARs form (1357 UTC 02 September 2014)
found at http://www.aviationweather.gov/adds/metars/
 
KPIA 021138Z 0212/0312 24004KT P6SM VCSH BKN008 BKN040 
     TEMPO 0213/0214 SCT008 
     FM021400 27006KT P6SM SCT020 BKN250 
     FM030000 VRB03KT P6SM SCT250 
     FM030900 VRB03KT 2SM BR SCT006